Time;durP1;ratioP1;P1;durP2;ratioP2;P2;SDS_P1;SDS_P2;PMS_P1;PMS_P2;Temp;Humidity;BMP_temperature;BMP_pressure;BME280_temperature;BME280_humidity;BME280_pressure;Samples;Min_cycle;Max_cycle;Signal;HPM_P1;HPM_P2
2021/12/27 00:00:38;;;;;;;29.75;21.95;;;;;;;;;;5089144;28;20114;-63
2021/12/27 00:03:04;;;;;;;23.58;20.42;;;;;;;;;;5092599;28;20043;-63
2021/12/27 00:05:29;;;;;;;22.88;20.20;;;;;;;;;;5092638;28;20027;-63
2021/12/27 00:07:55;;;;;;;24.70;19.85;;;;;;;;;;5092573;28;20036;-64
2021/12/27 00:10:22;;;;;;;21.90;19.20;;;;;;;;;;5074311;28;20071;-64
2021/12/27 00:12:48;;;;;;;24.55;20.55;;;;;;;;;;5074076;28;20410;-63
2021/12/27 00:15:14;;;;;;;27.45;23.45;;;;;;;;;;5092382;28;20028;-63
2021/12/27 00:17:40;;;;;;;23.98;18.55;;;;;;;;;;5057564;28;20036;-65
2021/12/27 00:20:10;;;;;;;24.02;19.38;;;;;;;;;;5092383;28;20043;-64
2021/12/27 00:22:36;;;;;;;23.35;19.90;;;;;;;;;;5092540;28;20040;-64
2021/12/27 00:25:03;;;;;;;21.02;18.20;;;;;;;;;;5092256;28;20039;-64
2021/12/27 00:27:28;;;;;;;23.30;19.33;;;;;;;;;;5074325;28;20040;-64
2021/12/27 00:29:54;;;;;;;23.67;20.00;;;;;;;;;;5092145;28;20585;-63
2021/12/27 00:32:19;;;;;;;23.58;19.55;;;;;;;;;;5092332;28;20040;-63
2021/12/27 00:34:45;;;;;;;21.80;18.05;;;;;;;;;;5092294;28;20039;-63
2021/12/27 00:37:10;;;;;;;20.80;18.50;;;;;;;;;;5092117;28;20073;-63
2021/12/27 00:39:36;;;;;;;22.25;19.08;;;;;;;;;;5091920;28;20033;-63
2021/12/27 00:42:01;;;;;;;24.90;19.48;;;;;;;;;;5073879;28;20028;-63
2021/12/27 00:44:27;;;;;;;21.85;18.60;;;;;;;;;;5092166;28;20101;-63
2021/12/27 00:46:53;;;;;;;19.48;17.15;;;;;;;;;;5073922;28;20059;-63
2021/12/27 00:49:18;;;;;;;20.73;17.55;;;;;;;;;;5092065;28;20032;-64
2021/12/27 00:51:43;;;;;;;21.20;18.88;;;;;;;;;;5092051;28;20024;-63
2021/12/27 00:54:09;;;;;;;21.73;18.73;;;;;;;;;;5091827;28;20096;-64
2021/12/27 00:56:34;;;;;;;22.35;18.60;;;;;;;;;;5092038;28;20036;-63
2021/12/27 00:59:00;;;;;;;23.10;19.00;;;;;;;;;;5091743;28;20035;-63
2021/12/27 01:01:25;;;;;;;21.55;18.00;;;;;;;;;;5073923;28;20028;-63
2021/12/27 01:03:51;;;;;;;23.55;20.38;;;;;;;;;;5092184;28;20475;-63
2021/12/27 01:06:16;;;;;;;23.75;19.55;;;;;;;;;;5091973;28;20534;-63
2021/12/27 01:08:42;;;;;;;22.73;19.65;;;;;;;;;;5091939;28;20034;-64
2021/12/27 01:13:45;;;;;;;21.02;18.83;;;;;;;;;;5091731;28;20037;-63
2021/12/27 01:16:11;;;;;;;22.05;19.25;;;;;;;;;;5056995;28;20117;-63
2021/12/27 01:18:40;;;;;;;20.75;18.50;;;;;;;;;;5091625;28;20398;-63
2021/12/27 01:21:05;;;;;;;21.80;18.15;;;;;;;;;;5056789;28;20098;-63
2021/12/27 01:23:31;;;;;;;22.95;18.55;;;;;;;;;;5074690;28;20024;-64
2021/12/27 01:25:56;;;;;;;25.65;22.05;;;;;;;;;;5077247;28;20040;-63
2021/12/27 01:28:22;;;;;;;23.73;20.00;;;;;;;;;;5095142;28;20032;-63
2021/12/27 01:30:49;;;;;;;23.67;18.85;;;;;;;;;;5095061;28;20055;-63
2021/12/27 01:33:19;;;;;;;21.70;17.75;;;;;;;;;;5060300;28;20083;-63
2021/12/27 01:35:45;;;;;;;22.90;18.77;;;;;;;;;;5076747;28;20032;-63
2021/12/27 01:38:12;;;;;;;22.92;18.73;;;;;;;;;;5094697;28;20047;-63
2021/12/27 01:40:38;;;;;;;19.73;17.63;;;;;;;;;;5060059;28;20040;-63
2021/12/27 01:43:11;;;;;;;21.23;17.65;;;;;;;;;;5095212;28;20032;-63
2021/12/27 01:45:41;;;;;;;21.13;17.92;;;;;;;;;;5094752;28;20031;-62
2021/12/27 01:48:07;;;;;;;;;;;;;;;;;;5076969;28;20024;-62
2021/12/27 01:50:34;;;;;;;20.48;17.10;;;;;;;;;;5094495;28;19922;-63
2021/12/27 01:52:59;;;;;;;20.08;17.23;;;;;;;;;;5059836;28;20051;-63
2021/12/27 01:55:25;;;;;;;20.40;16.83;;;;;;;;;;5094746;28;20040;-63
2021/12/27 01:57:50;;;;;;;20.83;17.08;;;;;;;;;;5094648;28;20075;-64
2021/12/27 02:00:16;;;;;;;22.08;17.30;;;;;;;;;;5094347;28;20029;-63
2021/12/27 02:02:42;;;;;;;21.70;18.08;;;;;;;;;;5094519;28;20028;-63
2021/12/27 02:05:08;;;;;;;22.40;17.88;;;;;;;;;;5094403;28;20039;-63
2021/12/27 02:07:33;;;;;;;19.40;17.05;;;;;;;;;;5094296;28;20123;-63
2021/12/27 02:10:02;;;;;;;21.70;18.15;;;;;;;;;;5094463;28;20229;-63
2021/12/27 02:12:28;;;;;;;22.13;18.38;;;;;;;;;;5076331;28;20032;-63
2021/12/27 02:14:54;;;;;;;26.58;19.60;;;;;;;;;;5059471;28;20035;-63
2021/12/27 02:17:20;;;;;;;21.45;18.60;;;;;;;;;;5076227;28;20032;-63
2021/12/27 02:19:49;;;;;;;20.20;18.02;;;;;;;;;;5094067;28;20047;-63
2021/12/27 02:22:14;;;;;;;22.60;18.45;;;;;;;;;;5059422;28;20032;-63
2021/12/27 02:24:43;;;;;;;26.65;18.85;;;;;;;;;;5094083;28;20120;-63
2021/12/27 02:27:11;;;;;;;21.48;18.23;;;;;;;;;;5076011;28;20044;-63
2021/12/27 02:29:37;;;;;;;22.40;18.53;;;;;;;;;;5075980;28;20032;-63
2021/12/27 02:32:02;;;;;;;23.88;18.83;;;;;;;;;;5094048;28;20474;-62
2021/12/27 02:34:28;;;;;;;21.67;18.75;;;;;;;;;;5094024;28;20174;-64
2021/12/27 02:36:53;;;;;;;22.90;19.48;;;;;;;;;;5075680;28;20032;-63
2021/12/27 02:39:19;;;;;;;24.20;21.02;;;;;;;;;;5094167;28;20046;-64
2021/12/27 02:41:44;;;;;;;31.13;20.08;;;;;;;;;;5094154;28;20020;-63
2021/12/27 02:44:10;;;;;;;29.88;18.70;;;;;;;;;;5093815;28;20508;-63
2021/12/27 02:46:35;;;;;;;23.38;19.70;;;;;;;;;;5093703;28;20024;-63
2021/12/27 02:49:01;;;;;;;23.13;19.13;;;;;;;;;;5093771;28;20040;-63
2021/12/27 02:51:26;;;;;;;23.00;18.95;;;;;;;;;;5093511;28;20032;-63
2021/12/27 02:53:52;;;;;;;22.33;18.90;;;;;;;;;;5093623;28;20043;-63
2021/12/27 02:56:18;;;;;;;20.48;18.25;;;;;;;;;;5093741;28;20047;-62
2021/12/27 02:58:44;;;;;;;21.38;18.35;;;;;;;;;;5058651;28;20043;-63
2021/12/27 03:01:12;;;;;;;21.20;18.75;;;;;;;;;;5075356;28;20551;-63
2021/12/27 03:03:38;;;;;;;21.90;19.55;;;;;;;;;;5093469;28;20471;-63
2021/12/27 03:06:04;;;;;;;21.85;18.67;;;;;;;;;;5093311;28;20047;-63
2021/12/27 03:08:30;;;;;;;19.42;17.02;;;;;;;;;;5093432;28;20040;-63
2021/12/27 03:10:56;;;;;;;23.65;20.48;;;;;;;;;;5075286;28;20386;-63
2021/12/27 03:13:23;;;;;;;21.13;18.75;;;;;;;;;;5075411;28;20368;-63
2021/12/27 03:15:56;;;;;;;23.20;18.40;;;;;;;;;;5058444;28;20542;-63
2021/12/27 03:18:21;;;;;;;20.48;17.65;;;;;;;;;;5058606;28;20067;-63
2021/12/27 03:20:47;;;;;;;22.58;19.13;;;;;;;;;;5075186;28;20070;-62
2021/12/27 03:23:13;;;;;;;21.35;18.02;;;;;;;;;;5058425;28;20088;-62
2021/12/27 03:25:39;;;;;;;21.10;18.75;;;;;;;;;;5093152;28;20036;-62
2021/12/27 03:28:05;;;;;;;22.63;20.17;;;;;;;;;;5058392;28;20375;-62
2021/12/27 03:30:31;;;;;;;24.17;19.35;;;;;;;;;;5074927;28;20049;-63
2021/12/27 03:32:56;;;;;;;22.25;19.83;;;;;;;;;;5092733;28;20043;-63
2021/12/27 03:35:28;;;;;;;22.13;18.45;;;;;;;;;;5092973;28;20032;-64
2021/12/27 03:37:55;;;;;;;362.10;30.30;;;;;;;;;;5058536;28;20132;-63
2021/12/27 03:40:21;;;;;;;96.60;19.45;;;;;;;;;;5092842;28;20043;-63
2021/12/27 03:42:49;;;;;;;25.88;16.65;;;;;;;;;;5092947;28;20031;-62
2021/12/27 03:45:16;;;;;;;18.58;16.67;;;;;;;;;;5074600;28;20036;-63
2021/12/27 03:47:42;;;;;;;19.85;17.85;;;;;;;;;;5092343;28;20032;-63
2021/12/27 03:50:08;;;;;;;19.38;17.38;;;;;;;;;;5074837;28;20556;-63
2021/12/27 03:52:33;;;;;;;21.15;18.98;;;;;;;;;;5092798;28;20036;-63
2021/12/27 03:54:59;;;;;;;195.80;26.55;;;;;;;;;;5092879;28;20461;-62
2021/12/27 03:57:24;;;;;;;62.53;19.83;;;;;;;;;;5091512;28;20081;-63
2021/12/27 04:00:14;;;;;;;22.25;15.90;;;;;;;;;;5092438;28;20043;-63
2021/12/27 04:02:37;;;;;;;16.55;14.38;;;;;;;;;;5084517;28;20043;-64
2021/12/27 04:05:03;;;;;;;16.38;14.73;;;;;;;;;;5068515;28;20119;-63
2021/12/27 04:07:33;;;;;;;19.13;14.93;;;;;;;;;;5068287;28;20086;-63
2021/12/27 04:09:59;;;;;;;;;;;;;;;;;;5034268;28;20033;-63
2021/12/27 04:12:25;;;;;;;17.33;14.38;;;;;;;;;;5068485;28;19981;-70
2021/12/27 04:14:50;;;;;;;15.60;14.10;;;;;;;;;;5053664;28;20479;-64
2021/12/27 04:17:16;;;;;;;15.80;14.10;;;;;;;;;;5070193;28;20148;-64
2021/12/27 04:19:41;;;;;;;250.55;23.08;;;;;;;;;;5088494;28;20067;-64
2021/12/27 04:22:07;;;;;;;91.25;19.38;;;;;;;;;;5088750;28;20391;-63
2021/12/27 04:24:32;;;;;;;46.70;15.52;;;;;;;;;;5088402;28;20426;-65
2021/12/27 04:26:57;;;;;;;16.08;13.75;;;;;;;;;;5088363;28;20384;-62
2021/12/27 04:29:23;;;;;;;22.40;17.02;;;;;;;;;;5088542;28;20047;-62
2021/12/27 04:31:48;;;;;;;17.08;15.23;;;;;;;;;;5088268;28;20345;-63
2021/12/27 04:34:14;;;;;;;19.83;17.02;;;;;;;;;;5088443;28;20422;-62
2021/12/27 04:36:39;;;;;;;17.10;15.30;;;;;;;;;;5088041;28;20036;-62
2021/12/27 04:39:04;;;;;;;15.50;13.90;;;;;;;;;;5088222;28;20040;-65
2021/12/27 04:41:30;;;;;;;16.83;15.13;;;;;;;;;;5088199;28;20032;-64
2021/12/27 04:43:55;;;;;;;15.05;13.50;;;;;;;;;;5088428;28;20097;-63
2021/12/27 04:46:21;;;;;;;16.77;15.15;;;;;;;;;;5088227;28;20044;-63
2021/12/27 04:48:51;;;;;;;17.98;16.08;;;;;;;;;;5069659;28;20028;-63
2021/12/27 04:51:16;;;;;;;16.85;14.57;;;;;;;;;;5069986;28;20032;-63
2021/12/27 04:53:41;;;;;;;18.50;16.80;;;;;;;;;;5087852;28;20433;-63
2021/12/27 04:56:07;;;;;;;18.90;17.00;;;;;;;;;;5088109;28;20043;-63
2021/12/27 04:58:32;;;;;;;49.10;16.70;;;;;;;;;;5089002;28;20101;-64
2021/12/27 05:00:58;;;;;;;135.60;22.38;;;;;;;;;;5091397;28;20070;-62
2021/12/27 05:03:23;;;;;;;14.70;12.57;;;;;;;;;;5073615;28;20028;-64
2021/12/27 05:05:48;;;;;;;291.67;30.98;;;;;;;;;;5091448;28;20536;-64
2021/12/27 05:08:14;;;;;;;28.35;14.25;;;;;;;;;;5091539;28;20070;-64
2021/12/27 05:10:39;;;;;;;42.65;16.42;;;;;;;;;;5091112;28;20036;-71
2021/12/27 05:13:05;;;;;;;28.45;15.60;;;;;;;;;;5091525;28;20035;-63
2021/12/27 05:15:30;;;;;;;38.30;14.75;;;;;;;;;;5091085;28;20048;-63
2021/12/27 05:17:56;;;;;;;35.65;13.40;;;;;;;;;;5073125;28;20039;-63
2021/12/27 05:20:21;;;;;;;74.50;15.27;;;;;;;;;;5091291;28;20040;-63
2021/12/27 05:22:47;;;;;;;74.40;17.38;;;;;;;;;;5091206;28;20085;-63
2021/12/27 05:25:16;;;;;;;43.55;13.88;;;;;;;;;;5091202;28;20054;-65
2021/12/27 05:27:41;;;;;;;34.50;13.82;;;;;;;;;;5072782;28;20466;-63
2021/12/27 05:30:08;;;;;;;85.35;16.05;;;;;;;;;;5091459;28;20036;-68
2021/12/27 05:32:35;;;;;;;56.40;13.85;;;;;;;;;;5056284;28;20044;-63
2021/12/27 05:35:01;;;;;;;115.05;23.80;;;;;;;;;;5073086;28;20089;-64
2021/12/27 05:37:27;;;;;;;32.28;12.77;;;;;;;;;;5072695;28;20039;-67
2021/12/27 05:39:52;;;;;;;145.38;19.95;;;;;;;;;;5091087;28;20036;-68
2021/12/27 05:42:17;;;;;;;290.60;30.05;;;;;;;;;;5091030;28;20028;-67
2021/12/27 05:44:43;;;;;;;116.75;17.13;;;;;;;;;;5090601;28;20039;-64
2021/12/27 05:47:08;;;;;;;40.85;11.77;;;;;;;;;;5089434;28;20120;-63
2021/12/27 05:49:34;;;;;;;56.33;12.18;;;;;;;;;;5091048;28;20036;-63
2021/12/27 05:51:59;;;;;;;10.05;8.13;;;;;;;;;;5090982;28;20582;-63
2021/12/27 05:54:24;;;;;;;12.80;11.27;;;;;;;;;;5090768;28;20064;-65
2021/12/27 05:56:50;;;;;;;12.95;11.65;;;;;;;;;;5090493;28;20063;-63
2021/12/27 05:59:19;;;;;;;13.60;11.75;;;;;;;;;;5090362;28;20040;-64
2021/12/27 06:01:45;;;;;;;14.98;13.20;;;;;;;;;;5055676;28;20066;-63
2021/12/27 06:04:10;;;;;;;17.65;14.15;;;;;;;;;;5072114;28;20033;-68
2021/12/27 06:06:36;;;;;;;15.93;13.55;;;;;;;;;;5090524;28;20036;-63
2021/12/27 06:09:02;;;;;;;16.92;14.27;;;;;;;;;;5089817;28;20028;-63
2021/12/27 06:11:27;;;;;;;14.18;10.85;;;;;;;;;;5090280;28;20403;-63
2021/12/27 06:13:53;;;;;;;28.52;13.45;;;;;;;;;;5090631;28;20036;-64
2021/12/27 06:16:20;;;;;;;17.35;14.45;;;;;;;;;;5090698;28;20040;-63
2021/12/27 06:18:46;;;;;;;14.98;13.43;;;;;;;;;;5072282;28;20036;-63
2021/12/27 06:21:11;;;;;;;12.90;11.27;;;;;;;;;;5090234;28;20055;-63
2021/12/27 06:23:36;;;;;;;14.85;12.15;;;;;;;;;;5090061;28;20028;-63
2021/12/27 06:26:02;;;;;;;35.80;12.55;;;;;;;;;;5090390;28;20118;-69
2021/12/27 06:28:29;;;;;;;14.02;12.23;;;;;;;;;;5090371;28;20429;-63
2021/12/27 06:30:54;;;;;;;15.35;11.05;;;;;;;;;;5089538;28;20032;-64
2021/12/27 06:33:20;;;;;;;37.53;13.98;;;;;;;;;;5055370;28;20474;-64
2021/12/27 06:35:45;;;;;;;71.88;15.68;;;;;;;;;;5089944;28;20036;-63
2021/12/27 06:38:11;;;;;;;19.50;13.82;;;;;;;;;;5089988;28;20032;-64
2021/12/27 06:40:36;;;;;;;17.08;13.32;;;;;;;;;;5090050;28;20073;-71
2021/12/27 06:43:02;;;;;;;13.43;12.02;;;;;;;;;;5090233;28;20036;-63
2021/12/27 06:45:27;;;;;;;14.75;10.80;;;;;;;;;;5089888;28;20059;-65
2021/12/27 06:47:53;;;;;;;13.38;11.98;;;;;;;;;;5071418;28;20059;-64
2021/12/27 06:50:19;;;;;;;12.95;10.95;;;;;;;;;;5071790;28;20028;-63
2021/12/27 06:52:45;;;;;;;15.13;11.45;;;;;;;;;;5089718;28;20036;-63
2021/12/27 06:55:11;;;;;;;15.00;12.07;;;;;;;;;;5054645;28;20039;-67
2021/12/27 06:57:37;;;;;;;14.55;11.43;;;;;;;;;;5054980;28;20036;-63
2021/12/27 07:00:04;;;;;;;14.57;11.15;;;;;;;;;;5054504;28;20028;-64
2021/12/27 07:02:30;;;;;;;14.27;11.43;;;;;;;;;;5054624;28;20032;-64
2021/12/27 07:04:55;;;;;;;15.68;10.95;;;;;;;;;;5089306;28;20103;-63
2021/12/27 07:07:20;;;;;;;12.90;10.85;;;;;;;;;;5089591;28;20028;-62
2021/12/27 07:09:46;;;;;;;13.15;11.50;;;;;;;;;;5071303;28;20076;-64
2021/12/27 07:12:11;;;;;;;13.25;10.82;;;;;;;;;;5089423;28;20146;-64
2021/12/27 07:14:37;;;;;;;13.00;11.55;;;;;;;;;;5089065;28;20039;-64
2021/12/27 07:17:02;;;;;;;17.95;11.52;;;;;;;;;;5089236;28;20036;-64
2021/12/27 07:19:28;;;;;;;13.93;11.65;;;;;;;;;;5089304;28;20032;-63
2021/12/27 07:21:53;;;;;;;15.02;12.68;;;;;;;;;;5088392;28;20043;-63
2021/12/27 07:24:19;;;;;;;15.63;11.55;;;;;;;;;;5089543;28;20036;-64
2021/12/27 07:26:44;;;;;;;15.45;11.50;;;;;;;;;;5088888;28;20028;-65
2021/12/27 07:29:10;;;;;;;16.50;11.55;;;;;;;;;;5088214;28;20036;-66
2021/12/27 07:31:36;;;;;;;18.17;11.35;;;;;;;;;;5070766;28;20158;-65
2021/12/27 07:34:02;;;;;;;14.88;10.95;;;;;;;;;;5054378;28;20110;-70
2021/12/27 07:36:28;;;;;;;14.95;10.40;;;;;;;;;;5089142;28;20398;-63
2021/12/27 07:38:54;;;;;;;10.48;8.88;;;;;;;;;;5063938;28;20400;-66
2021/12/27 07:41:20;;;;;;;13.57;9.23;;;;;;;;;;5070220;28;20490;-65
2021/12/27 07:43:45;;;;;;;12.90;7.75;;;;;;;;;;5089227;28;20047;-69
2021/12/27 07:46:11;;;;;;;10.85;7.35;;;;;;;;;;5088696;28;20063;-65
2021/12/27 07:48:36;;;;;;;12.57;6.40;;;;;;;;;;5053874;28;20028;-65
2021/12/27 07:51:02;;;;;;;12.65;6.63;;;;;;;;;;5089289;28;20020;-65
2021/12/27 07:53:27;;;;;;;7.03;5.53;;;;;;;;;;5089123;28;20040;-64
2021/12/27 07:55:53;;;;;;;8.90;5.50;;;;;;;;;;5069724;28;20036;-66
2021/12/27 07:58:18;;;;;;;10.30;5.05;;;;;;;;;;5075211;28;20090;-65
2021/12/27 08:00:50;;;;;;;8.32;5.15;;;;;;;;;;5068035;28;20047;-64
2021/12/27 08:03:15;;;;;;;7.20;4.85;;;;;;;;;;5050676;28;20032;-69
2021/12/27 08:05:41;;;;;;;6.70;4.43;;;;;;;;;;5067162;28;20123;-65
2021/12/27 08:08:06;;;;;;;8.75;4.65;;;;;;;;;;5077153;28;20032;-66
2021/12/27 08:10:32;;;;;;;9.52;4.47;;;;;;;;;;5088852;28;20027;-66
2021/12/27 08:12:57;;;;;;;7.95;4.15;;;;;;;;;;5070420;28;20038;-65
2021/12/27 08:15:23;;;;;;;6.10;3.80;;;;;;;;;;5088063;28;20158;-66
2021/12/27 08:17:48;;;;;;;8.07;4.03;;;;;;;;;;5050633;28;20135;-66
2021/12/27 08:20:14;;;;;;;9.48;4.90;;;;;;;;;;5065973;28;20373;-66
2021/12/27 08:22:39;;;;;;;10.32;4.47;;;;;;;;;;5067990;28;20060;-65
2021/12/27 08:25:07;;;;;;;10.52;4.88;;;;;;;;;;5068179;28;20033;-65
2021/12/27 08:27:34;;;;;;;8.63;4.40;;;;;;;;;;5066314;28;20032;-66
2021/12/27 08:30:04;;;;;;;10.00;4.40;;;;;;;;;;5049822;28;20028;-67
2021/12/27 08:32:30;;;;;;;7.55;4.78;;;;;;;;;;5051648;28;20051;-65
2021/12/27 08:34:55;;;;;;;10.13;4.25;;;;;;;;;;5069811;28;20487;-67
2021/12/27 08:37:21;;;;;;;6.35;3.97;;;;;;;;;;5071387;28;20768;-66
2021/12/27 08:39:46;;;;;;;11.95;4.75;;;;;;;;;;5071650;28;20044;-65
2021/12/27 08:42:12;;;;;;;6.13;3.92;;;;;;;;;;5071536;28;20041;-66
2021/12/27 08:44:37;;;;;;;7.20;3.95;;;;;;;;;;5071313;28;20040;-67
2021/12/27 08:47:03;;;;;;;8.60;4.22;;;;;;;;;;5052660;28;20032;-66
2021/12/27 08:49:28;;;;;;;8.55;3.60;;;;;;;;;;5071455;28;20064;-66
2021/12/27 08:51:54;;;;;;;7.28;4.03;;;;;;;;;;5071232;28;20033;-66
2021/12/27 08:54:19;;;;;;;6.78;3.70;;;;;;;;;;5071549;28;20482;-67
2021/12/27 08:56:45;;;;;;;5.93;3.67;;;;;;;;;;5070691;28;20036;-68
2021/12/27 08:59:10;;;;;;;10.30;3.92;;;;;;;;;;5071451;28;20508;-68
2021/12/27 09:01:36;;;;;;;6.05;3.72;;;;;;;;;;5070941;28;20032;-69
2021/12/27 09:04:04;;;;;;;6.53;3.60;;;;;;;;;;5071308;28;20032;-69
2021/12/27 09:06:30;;;;;;;7.20;3.67;;;;;;;;;;5053315;28;20051;-68
2021/12/27 09:08:55;;;;;;;6.40;3.40;;;;;;;;;;5070892;28;20028;-67
2021/12/27 09:11:21;;;;;;;7.65;3.25;;;;;;;;;;5071161;28;20037;-67
2021/12/27 09:13:46;;;;;;;8.73;3.88;;;;;;;;;;5070708;28;20085;-68
2021/12/27 09:16:13;;;;;;;9.70;3.88;;;;;;;;;;5070692;28;20036;-68
2021/12/27 09:18:39;;;;;;;8.65;3.42;;;;;;;;;;5052652;28;20068;-68
2021/12/27 09:21:04;;;;;;;6.40;3.90;;;;;;;;;;5070835;28;20082;-67
2021/12/27 09:23:30;;;;;;;8.82;4.55;;;;;;;;;;5071134;28;20068;-68
2021/12/27 09:25:55;;;;;;;15.40;4.68;;;;;;;;;;5070730;28;20066;-67
2021/12/27 09:28:21;;;;;;;10.27;4.63;;;;;;;;;;5070781;28;20447;-66
2021/12/27 09:30:46;;;;;;;13.07;4.80;;;;;;;;;;5070399;28;20024;-70
2021/12/27 09:33:12;;;;;;;10.65;4.90;;;;;;;;;;5070652;28;20029;-66
2021/12/27 09:35:37;;;;;;;14.05;5.63;;;;;;;;;;5070510;28;20047;-66
2021/12/27 09:38:03;;;;;;;11.85;6.18;;;;;;;;;;5070249;28;20068;-68
2021/12/27 09:40:28;;;;;;;14.40;6.03;;;;;;;;;;5069269;28;20036;-66
2021/12/27 09:42:54;;;;;;;14.20;6.45;;;;;;;;;;5070263;28;20459;-67
2021/12/27 09:45:20;;;;;;;11.68;6.70;;;;;;;;;;5069769;28;20039;-66
2021/12/27 09:47:47;;;;;;;11.25;7.30;;;;;;;;;;5052937;28;20037;-66
2021/12/27 09:50:17;;;;;;;10.48;6.38;;;;;;;;;;5052331;28;20499;-69
2021/12/27 09:52:42;;;;;;;;;;;;;;;;;;5069589;28;20041;-66
2021/12/27 09:55:09;;;;;;;15.73;6.83;;;;;;;;;;5070416;28;19962;-65
2021/12/27 09:57:35;;;;;;;12.85;6.32;;;;;;;;;;5070028;28;20295;-67
2021/12/27 10:00:00;;;;;;;10.63;6.15;;;;;;;;;;5068955;28;20083;-64
2021/12/27 10:02:26;;;;;;;12.18;6.40;;;;;;;;;;5069876;28;20024;-65
2021/12/27 10:04:53;;;;;;;14.05;7.03;;;;;;;;;;5069865;28;20551;-65
2021/12/27 10:07:22;;;;;;;13.35;6.28;;;;;;;;;;5051570;28;20040;-72
2021/12/27 10:09:53;;;;;;;14.18;7.30;;;;;;;;;;5068575;28;20033;-65
2021/12/27 10:12:19;;;;;;;12.82;7.32;;;;;;;;;;5052001;28;20049;-66
2021/12/27 10:14:45;;;;;;;12.52;8.43;;;;;;;;;;5068496;28;20040;-67
2021/12/27 10:17:11;;;;;;;10.05;6.75;;;;;;;;;;5069777;28;20036;-66
2021/12/27 10:19:37;;;;;;;11.65;7.05;;;;;;;;;;5069856;28;20032;-67
2021/12/27 10:22:03;;;;;;;11.27;7.07;;;;;;;;;;5069904;28;20446;-64
2021/12/27 10:24:29;;;;;;;12.23;7.20;;;;;;;;;;5068573;28;20094;-66
2021/12/27 10:27:01;;;;;;;17.27;7.93;;;;;;;;;;5068172;28;20036;-70
2021/12/27 10:29:31;;;;;;;11.52;6.72;;;;;;;;;;5051700;28;20037;-67
2021/12/27 10:31:56;;;;;;;;;;;;;;;;;;5069846;28;20036;-67
2021/12/27 10:34:23;;;;;;;16.37;6.43;;;;;;;;;;5069947;28;19916;-65
2021/12/27 10:36:58;;;;;;;11.25;5.93;;;;;;;;;;5068014;28;20302;-68
2021/12/27 10:39:28;;;;;;;8.50;5.95;;;;;;;;;;5051603;28;20154;-66
2021/12/27 10:41:53;;;;;;;11.40;5.40;;;;;;;;;;5051563;28;20036;-70
2021/12/27 10:44:18;;;;;;;10.27;5.80;;;;;;;;;;5069627;28;20039;-65
2021/12/27 10:46:44;;;;;;;11.95;5.80;;;;;;;;;;5069384;28;20082;-67
2021/12/27 10:49:09;;;;;;;10.85;4.65;;;;;;;;;;5069345;28;20090;-67
2021/12/27 10:51:34;;;;;;;11.52;5.32;;;;;;;;;;5069101;28;20033;-66
2021/12/27 10:54:01;;;;;;;10.40;4.55;;;;;;;;;;5068973;28;20072;-66
2021/12/27 10:56:28;;;;;;;8.20;4.18;;;;;;;;;;5067886;28;20032;-66
2021/12/27 10:58:57;;;;;;;10.38;4.53;;;;;;;;;;5051159;28;20045;-66
2021/12/27 11:01:24;;;;;;;9.07;4.03;;;;;;;;;;5068002;28;20400;-66
2021/12/27 11:03:50;;;;;;;8.00;4.30;;;;;;;;;;5051541;28;20059;-66
2021/12/27 11:06:20;;;;;;;10.60;4.15;;;;;;;;;;5050922;28;20052;-66
2021/12/27 11:08:47;;;;;;;9.75;4.10;;;;;;;;;;5050500;28;20126;-68
2021/12/27 11:11:13;;;;;;;10.95;5.07;;;;;;;;;;5050995;28;20074;-65
2021/12/27 11:13:39;;;;;;;9.73;4.78;;;;;;;;;;5069160;28;20036;-66
2021/12/27 11:16:04;;;;;;;8.93;5.15;;;;;;;;;;5051090;28;20496;-66
2021/12/27 11:18:30;;;;;;;10.30;4.88;;;;;;;;;;5069250;28;20037;-68
2021/12/27 11:20:56;;;;;;;8.95;3.75;;;;;;;;;;5068823;28;20036;-66
2021/12/27 11:23:23;;;;;;;11.18;4.07;;;;;;;;;;5067108;28;20032;-66
2021/12/27 11:25:57;;;;;;;8.48;3.75;;;;;;;;;;5050798;28;20037;-66
2021/12/27 11:28:25;;;;;;;8.85;4.35;;;;;;;;;;5067699;28;20036;-64
2021/12/27 11:30:50;;;;;;;10.25;4.13;;;;;;;;;;5069039;28;20145;-66
2021/12/27 11:33:20;;;;;;;10.43;4.68;;;;;;;;;;5067545;28;20123;-64
2021/12/27 11:35:52;;;;;;;12.93;4.05;;;;;;;;;;5067888;28;20036;-64
2021/12/27 11:38:33;;;;;;;9.02;3.47;;;;;;;;;;5069093;28;20062;-70
2021/12/27 11:41:01;;;;;;;7.20;3.35;;;;;;;;;;5068514;28;20514;-64
2021/12/27 11:43:45;;;;;;;7.45;3.47;;;;;;;;;;5067815;28;20044;-64
2021/12/27 11:46:11;;;;;;;7.30;3.78;;;;;;;;;;5068976;28;20533;-64
2021/12/27 11:48:43;;;;;;;10.23;4.07;;;;;;;;;;5060978;28;20135;-65
2021/12/27 11:51:10;;;;;;;10.18;4.82;;;;;;;;;;5034482;28;20032;-65
2021/12/27 11:53:43;;;;;;;14.80;4.32;;;;;;;;;;5034144;28;20067;-63
2021/12/27 11:56:09;;;;;;;15.75;4.72;;;;;;;;;;5034407;28;20036;-63
2021/12/27 11:58:37;;;;;;;8.07;3.45;;;;;;;;;;5034017;28;20044;-66
2021/12/27 12:01:05;;;;;;;8.38;3.75;;;;;;;;;;5068490;28;20036;-65
2021/12/27 12:03:36;;;;;;;8.05;4.03;;;;;;;;;;5051108;28;20090;-64
2021/12/27 12:06:01;;;;;;;11.45;4.18;;;;;;;;;;5033707;28;20047;-63
2021/12/27 12:08:27;;;;;;;7.40;3.55;;;;;;;;;;5067494;28;20480;-63
2021/12/27 12:10:59;;;;;;;8.82;3.88;;;;;;;;;;5050384;28;20500;-67
2021/12/27 12:13:28;;;;;;;9.07;4.05;;;;;;;;;;5075093;28;20065;-64
2021/12/27 12:16:01;;;;;;;8.85;3.83;;;;;;;;;;5069828;28;20104;-69
2021/12/27 12:18:27;;;;;;;10.90;4.13;;;;;;;;;;5083454;28;20047;-66
2021/12/27 12:20:53;;;;;;;14.10;4.47;;;;;;;;;;5088048;28;20464;-64
2021/12/27 12:23:18;;;;;;;9.45;3.90;;;;;;;;;;5088286;28;20040;-67
2021/12/27 12:25:44;;;;;;;9.45;4.22;;;;;;;;;;5088756;28;20051;-63
2021/12/27 12:28:10;;;;;;;11.80;4.35;;;;;;;;;;5088453;28;20031;-67
2021/12/27 12:30:40;;;;;;;13.43;4.63;;;;;;;;;;5053361;28;20050;-63
2021/12/27 12:33:08;;;;;;;15.10;4.72;;;;;;;;;;5053664;28;20047;-63
2021/12/27 12:35:56;;;;;;;12.95;4.78;;;;;;;;;;5088385;28;20048;-64
2021/12/27 12:38:26;;;;;;;9.90;3.92;;;;;;;;;;5053397;28;20085;-63
2021/12/27 12:40:57;;;;;;;11.75;3.47;;;;;;;;;;5069425;28;20047;-63
2021/12/27 12:43:41;;;;;;;11.77;2.75;;;;;;;;;;5053467;28;20036;-64
2021/12/27 12:46:15;;;;;;;11.05;3.40;;;;;;;;;;5066693;28;20115;-66
2021/12/27 12:48:40;;;;;;;12.77;3.13;;;;;;;;;;5066342;28;20044;-63
2021/12/27 12:51:05;;;;;;;9.55;2.92;;;;;;;;;;5067913;28;20025;-63
2021/12/27 12:53:31;;;;;;;11.30;3.05;;;;;;;;;;5067883;28;20032;-70
2021/12/27 12:56:14;;;;;;;9.20;3.05;;;;;;;;;;5068381;28;20108;-71
2021/12/27 12:58:40;;;;;;;9.48;2.60;;;;;;;;;;5049592;28;20045;-63
2021/12/27 13:01:09;;;;;;;12.20;2.63;;;;;;;;;;5067884;28;20532;-63
2021/12/27 13:03:35;;;;;;;9.98;3.38;;;;;;;;;;5049820;28;20037;-64
2021/12/27 13:06:03;;;;;;;7.35;2.60;;;;;;;;;;5066688;28;20043;-63
2021/12/27 13:08:29;;;;;;;12.40;3.67;;;;;;;;;;5049737;28;20040;-63
2021/12/27 13:10:55;;;;;;;13.73;3.90;;;;;;;;;;5066197;28;20043;-63
2021/12/27 13:13:21;;;;;;;9.15;2.80;;;;;;;;;;5066228;28;20048;-63
2021/12/27 13:15:54;;;;;;;7.30;2.42;;;;;;;;;;5067796;28;20082;-64
2021/12/27 13:18:21;;;;;;;14.82;2.80;;;;;;;;;;5066438;28;20040;-63
2021/12/27 13:20:56;;;;;;;13.30;3.50;;;;;;;;;;5052444;28;20037;-64
2021/12/27 13:23:27;;;;;;;10.00;3.15;;;;;;;;;;5053472;28;20393;-63
2021/12/27 13:25:54;;;;;;;12.10;2.90;;;;;;;;;;5053240;28;20203;-63
2021/12/27 13:28:23;;;;;;;10.50;3.03;;;;;;;;;;5071087;28;20067;-62
2021/12/27 13:31:00;;;;;;;10.13;3.42;;;;;;;;;;5070819;28;20028;-64
2021/12/27 13:33:46;;;;;;;11.20;3.20;;;;;;;;;;5069938;28;20044;-63
2021/12/27 13:36:14;;;;;;;9.88;3.05;;;;;;;;;;5090477;28;20089;-63
2021/12/27 13:38:56;;;;;;;8.40;2.65;;;;;;;;;;5091164;28;20467;-63
2021/12/27 13:41:23;;;;;;;9.60;2.85;;;;;;;;;;5055790;28;20036;-64
2021/12/27 13:43:50;;;;;;;8.00;2.58;;;;;;;;;;5055920;28;20028;-63
2021/12/27 13:46:19;;;;;;;6.95;2.55;;;;;;;;;;5090789;28;20453;-63
2021/12/27 13:48:45;;;;;;;8.73;2.63;;;;;;;;;;5072561;28;20031;-63
2021/12/27 13:51:16;;;;;;;7.50;2.88;;;;;;;;;;5090791;28;20398;-66
2021/12/27 13:53:51;;;;;;;8.20;2.95;;;;;;;;;;5091055;28;20032;-64
2021/12/27 13:56:16;;;;;;;7.80;2.80;;;;;;;;;;5090734;28;20039;-64
2021/12/27 13:58:43;;;;;;;9.38;2.92;;;;;;;;;;5090414;28;20387;-64
2021/12/27 14:01:16;;;;;;;8.77;2.83;;;;;;;;;;5072257;28;20028;-64
2021/12/27 14:03:42;;;;;;;12.93;2.15;;;;;;;;;;5091115;28;20024;-63
2021/12/27 14:06:09;;;;;;;10.80;2.90;;;;;;;;;;5090869;28;20028;-63
2021/12/27 14:08:35;;;;;;;10.23;2.88;;;;;;;;;;5090180;28;20032;-63
2021/12/27 14:11:01;;;;;;;9.60;3.03;;;;;;;;;;5055648;28;20058;-63
2021/12/27 14:13:45;;;;;;;8.95;2.78;;;;;;;;;;5072566;28;20043;-63
2021/12/27 14:16:26;;;;;;;9.20;3.08;;;;;;;;;;5090209;28;20107;-65
2021/12/27 14:19:15;;;;;;;8.65;3.22;;;;;;;;;;5090024;28;20031;-63
2021/12/27 14:21:59;;;;;;;9.93;3.08;;;;;;;;;;5081859;28;20052;-63
2021/12/27 14:24:29;;;;;;;9.73;2.85;;;;;;;;;;5090388;28;20032;-64
2021/12/27 14:26:54;;;;;;;;;;;;;;;;;;5090540;28;20036;-63
2021/12/27 14:29:20;;;;;;;8.67;3.10;;;;;;;;;;5090371;28;19916;-69